Main page
METAR-TAF:

METAR-TAF

Airports :

Vavaʻu International Airport

Vavaʻu, Tonga

latitude: 18-35-07S, longitude: 173-57-42W, elevation: 72 m

Current weather observation

The report was made 1 hour and 37 minutes ago, at 17:00 UTC
Calm wind
Temperature 21°C
Humidity 78%
Pressure 1012 hPa
Visibility 10 km or more
Few clouds at a height of 1700 ft

METAR: NFTV 211700Z 00000KT 9999 FEW017 21/17 Q1012

Time: 07:37 (18:37 UTC)

Forecast

The report was made 1 hour and 31 minutes ago, at 17:06 UTC
Forecast valid from 21 at 18 UTC to 22 at 18 UTC
Wind 5 kt from the South
Visibility 10 km or more
Few clouds at a height of 1700 ft

TAF: NFTV 211706Z 2118/2218 18005KT 9999 FEW017

Weather observations and forecasts of more than 4000 airports (METAR and TAF reports).

The available stations are represented by yellow and red dots on the map.

Hover mouse over dot to see the name of the station.

Then click to see weather observations and forecasts.

To change the map : click on the green buttons with a black cross to zoom in, on the green button with a dash to zoom out, or on the green arrows for adjacent maps.


METAR-TAF: